sensor_id;sensor_type;location;lat;lon;timestamp;P1;durP1;ratioP1;P2;durP2;ratioP2
64712;SDS011;51140;45.340;5.980;2024-01-25T00:01:55;9.50;;;4.63;;
64712;SDS011;51140;45.340;5.980;2024-01-25T00:04:21;9.38;;;3.53;;
64712;SDS011;51140;45.340;5.980;2024-01-25T00:06:46;7.18;;;3.00;;
64712;SDS011;51140;45.340;5.980;2024-01-25T00:09:11;7.38;;;2.60;;
64712;SDS011;51140;45.340;5.980;2024-01-25T00:11:37;7.13;;;2.38;;
64712;SDS011;51140;45.340;5.980;2024-01-25T00:14:03;8.63;;;2.75;;
64712;SDS011;51140;45.340;5.980;2024-01-25T00:16:28;9.38;;;2.80;;
64712;SDS011;51140;45.340;5.980;2024-01-25T00:18:54;7.15;;;2.45;;
64712;SDS011;51140;45.340;5.980;2024-01-25T00:21:19;8.52;;;2.72;;
64712;SDS011;51140;45.340;5.980;2024-01-25T00:23:45;8.20;;;2.75;;
64712;SDS011;51140;45.340;5.980;2024-01-25T00:26:10;9.35;;;3.55;;
64712;SDS011;51140;45.340;5.980;2024-01-25T00:28:36;9.07;;;3.80;;
64712;SDS011;51140;45.340;5.980;2024-01-25T00:31:01;10.68;;;2.72;;
64712;SDS011;51140;45.340;5.980;2024-01-25T00:33:27;5.88;;;1.95;;
64712;SDS011;51140;45.340;5.980;2024-01-25T00:35:52;5.80;;;1.48;;
64712;SDS011;51140;45.340;5.980;2024-01-25T00:38:18;9.00;;;3.28;;
64712;SDS011;51140;45.340;5.980;2024-01-25T00:40:44;6.85;;;2.50;;
64712;SDS011;51140;45.340;5.980;2024-01-25T00:43:09;11.60;;;4.03;;
64712;SDS011;51140;45.340;5.980;2024-01-25T00:45:35;12.23;;;5.50;;
64712;SDS011;51140;45.340;5.980;2024-01-25T00:48:01;12.93;;;5.00;;
64712;SDS011;51140;45.340;5.980;2024-01-25T00:50:26;7.45;;;2.65;;
64712;SDS011;51140;45.340;5.980;2024-01-25T00:52:52;13.60;;;5.95;;
64712;SDS011;51140;45.340;5.980;2024-01-25T00:55:18;16.40;;;6.95;;
64712;SDS011;51140;45.340;5.980;2024-01-25T00:57:44;5.88;;;2.58;;
64712;SDS011;51140;45.340;5.980;2024-01-25T01:00:10;10.68;;;4.75;;
64712;SDS011;51140;45.340;5.980;2024-01-25T01:02:36;9.27;;;3.30;;
64712;SDS011;51140;45.340;5.980;2024-01-25T01:05:05;9.15;;;2.90;;
64712;SDS011;51140;45.340;5.980;2024-01-25T01:07:34;6.25;;;2.60;;
64712;SDS011;51140;45.340;5.980;2024-01-25T01:09:59;6.72;;;2.10;;
64712;SDS011;51140;45.340;5.980;2024-01-25T01:12:25;10.55;;;4.75;;
64712;SDS011;51140;45.340;5.980;2024-01-25T01:14:50;13.18;;;5.00;;
64712;SDS011;51140;45.340;5.980;2024-01-25T01:17:15;10.98;;;5.30;;
64712;SDS011;51140;45.340;5.980;2024-01-25T01:19:41;16.58;;;6.63;;
64712;SDS011;51140;45.340;5.980;2024-01-25T01:22:06;11.75;;;4.70;;
64712;SDS011;51140;45.340;5.980;2024-01-25T01:24:32;8.93;;;3.42;;
64712;SDS011;51140;45.340;5.980;2024-01-25T01:26:57;9.00;;;2.75;;
64712;SDS011;51140;45.340;5.980;2024-01-25T01:29:24;7.22;;;2.78;;
64712;SDS011;51140;45.340;5.980;2024-01-25T01:31:49;7.75;;;2.60;;
64712;SDS011;51140;45.340;5.980;2024-01-25T01:34:14;6.07;;;2.60;;
64712;SDS011;51140;45.340;5.980;2024-01-25T01:36:42;7.05;;;3.03;;
64712;SDS011;51140;45.340;5.980;2024-01-25T01:39:08;10.55;;;5.00;;
64712;SDS011;51140;45.340;5.980;2024-01-25T01:41:33;13.07;;;5.80;;
64712;SDS011;51140;45.340;5.980;2024-01-25T01:43:59;14.15;;;7.07;;
64712;SDS011;51140;45.340;5.980;2024-01-25T01:46:34;12.25;;;5.72;;
64712;SDS011;51140;45.340;5.980;2024-01-25T01:49:05;14.13;;;6.35;;
64712;SDS011;51140;45.340;5.980;2024-01-25T01:51:33;12.00;;;4.97;;
64712;SDS011;51140;45.340;5.980;2024-01-25T01:54:02;17.50;;;8.02;;
64712;SDS011;51140;45.340;5.980;2024-01-25T01:56:30;27.08;;;15.63;;
64712;SDS011;51140;45.340;5.980;2024-01-25T01:59:00;16.20;;;8.82;;
64712;SDS011;51140;45.340;5.980;2024-01-25T02:01:30;26.17;;;14.95;;
64712;SDS011;51140;45.340;5.980;2024-01-25T02:03:56;26.10;;;15.57;;
64712;SDS011;51140;45.340;5.980;2024-01-25T02:06:23;21.55;;;11.32;;
64712;SDS011;51140;45.340;5.980;2024-01-25T02:08:49;17.65;;;8.93;;
64712;SDS011;51140;45.340;5.980;2024-01-25T02:11:24;40.03;;;23.37;;
64712;SDS011;51140;45.340;5.980;2024-01-25T02:13:53;23.70;;;13.75;;
64712;SDS011;51140;45.340;5.980;2024-01-25T02:16:19;32.22;;;18.67;;
64712;SDS011;51140;45.340;5.980;2024-01-25T02:18:45;23.00;;;13.98;;
64712;SDS011;51140;45.340;5.980;2024-01-25T02:21:11;22.55;;;11.80;;
64712;SDS011;51140;45.340;5.980;2024-01-25T02:23:36;18.50;;;9.30;;
64712;SDS011;51140;45.340;5.980;2024-01-25T02:26:02;15.95;;;8.07;;
64712;SDS011;51140;45.340;5.980;2024-01-25T02:28:27;19.98;;;9.60;;
64712;SDS011;51140;45.340;5.980;2024-01-25T02:30:53;16.42;;;9.60;;
64712;SDS011;51140;45.340;5.980;2024-01-25T02:33:18;22.48;;;13.10;;
64712;SDS011;51140;45.340;5.980;2024-01-25T02:35:44;16.30;;;8.63;;
64712;SDS011;51140;45.340;5.980;2024-01-25T02:38:09;15.07;;;7.05;;
64712;SDS011;51140;45.340;5.980;2024-01-25T02:40:34;11.02;;;5.72;;
64712;SDS011;51140;45.340;5.980;2024-01-25T02:43:00;9.98;;;4.25;;
64712;SDS011;51140;45.340;5.980;2024-01-25T02:45:25;7.28;;;3.03;;
64712;SDS011;51140;45.340;5.980;2024-01-25T02:47:50;10.40;;;2.85;;
64712;SDS011;51140;45.340;5.980;2024-01-25T02:50:16;6.32;;;2.65;;
64712;SDS011;51140;45.340;5.980;2024-01-25T02:52:41;6.93;;;2.60;;
64712;SDS011;51140;45.340;5.980;2024-01-25T02:55:07;7.32;;;2.90;;
64712;SDS011;51140;45.340;5.980;2024-01-25T02:57:32;7.97;;;3.10;;
64712;SDS011;51140;45.340;5.980;2024-01-25T02:59:58;11.38;;;2.88;;
64712;SDS011;51140;45.340;5.980;2024-01-25T03:02:24;7.55;;;2.65;;
64712;SDS011;51140;45.340;5.980;2024-01-25T03:04:49;7.60;;;2.63;;
64712;SDS011;51140;45.340;5.980;2024-01-25T03:07:15;6.07;;;2.60;;
64712;SDS011;51140;45.340;5.980;2024-01-25T03:09:40;8.80;;;2.67;;
64712;SDS011;51140;45.340;5.980;2024-01-25T03:12:06;14.93;;;7.43;;
64712;SDS011;51140;45.340;5.980;2024-01-25T03:14:31;16.80;;;8.35;;
64712;SDS011;51140;45.340;5.980;2024-01-25T03:16:57;19.75;;;8.88;;
64712;SDS011;51140;45.340;5.980;2024-01-25T03:19:24;20.63;;;8.25;;
64712;SDS011;51140;45.340;5.980;2024-01-25T03:21:50;16.60;;;8.35;;
64712;SDS011;51140;45.340;5.980;2024-01-25T03:24:16;16.95;;;8.27;;
64712;SDS011;51140;45.340;5.980;2024-01-25T03:26:41;16.33;;;9.27;;
64712;SDS011;51140;45.340;5.980;2024-01-25T03:29:06;17.02;;;8.57;;
64712;SDS011;51140;45.340;5.980;2024-01-25T03:31:32;16.38;;;7.97;;
64712;SDS011;51140;45.340;5.980;2024-01-25T03:33:57;17.08;;;8.15;;
64712;SDS011;51140;45.340;5.980;2024-01-25T03:36:23;17.15;;;8.02;;
64712;SDS011;51140;45.340;5.980;2024-01-25T03:38:48;16.83;;;7.93;;
64712;SDS011;51140;45.340;5.980;2024-01-25T03:41:13;13.73;;;6.53;;
64712;SDS011;51140;45.340;5.980;2024-01-25T03:43:39;13.55;;;5.38;;
64712;SDS011;51140;45.340;5.980;2024-01-25T03:46:04;9.85;;;3.97;;
64712;SDS011;51140;45.340;5.980;2024-01-25T03:48:30;10.27;;;3.83;;
64712;SDS011;51140;45.340;5.980;2024-01-25T03:50:55;11.38;;;3.85;;
64712;SDS011;51140;45.340;5.980;2024-01-25T03:53:21;11.02;;;4.85;;
64712;SDS011;51140;45.340;5.980;2024-01-25T03:55:47;10.88;;;5.43;;
64712;SDS011;51140;45.340;5.980;2024-01-25T03:58:18;13.68;;;4.82;;
64712;SDS011;51140;45.340;5.980;2024-01-25T04:00:44;10.35;;;5.15;;
64712;SDS011;51140;45.340;5.980;2024-01-25T04:03:10;11.15;;;5.28;;
64712;SDS011;51140;45.340;5.980;2024-01-25T04:05:36;10.48;;;5.63;;
64712;SDS011;51140;45.340;5.980;2024-01-25T04:08:01;12.95;;;6.00;;
64712;SDS011;51140;45.340;5.980;2024-01-25T04:10:27;11.00;;;6.05;;
64712;SDS011;51140;45.340;5.980;2024-01-25T04:12:52;11.52;;;5.97;;
64712;SDS011;51140;45.340;5.980;2024-01-25T04:15:18;11.68;;;5.95;;
64712;SDS011;51140;45.340;5.980;2024-01-25T04:17:43;9.10;;;4.43;;
64712;SDS011;51140;45.340;5.980;2024-01-25T04:20:09;8.80;;;3.40;;
64712;SDS011;51140;45.340;5.980;2024-01-25T04:22:35;9.15;;;3.80;;
64712;SDS011;51140;45.340;5.980;2024-01-25T04:25:01;7.75;;;3.00;;
64712;SDS011;51140;45.340;5.980;2024-01-25T04:27:27;5.78;;;2.50;;
64712;SDS011;51140;45.340;5.980;2024-01-25T04:29:52;11.75;;;5.15;;
64712;SDS011;51140;45.340;5.980;2024-01-25T04:32:17;9.25;;;3.35;;
64712;SDS011;51140;45.340;5.980;2024-01-25T04:34:43;10.27;;;3.50;;
64712;SDS011;51140;45.340;5.980;2024-01-25T04:37:09;9.07;;;3.45;;
64712;SDS011;51140;45.340;5.980;2024-01-25T04:39:34;11.75;;;3.83;;
64712;SDS011;51140;45.340;5.980;2024-01-25T04:42:00;10.18;;;4.15;;
64712;SDS011;51140;45.340;5.980;2024-01-25T04:44:25;9.07;;;3.20;;
64712;SDS011;51140;45.340;5.980;2024-01-25T04:46:50;9.00;;;3.40;;
64712;SDS011;51140;45.340;5.980;2024-01-25T04:49:17;8.25;;;3.55;;
64712;SDS011;51140;45.340;5.980;2024-01-25T04:51:42;7.97;;;3.72;;
64712;SDS011;51140;45.340;5.980;2024-01-25T04:54:08;6.30;;;2.83;;
64712;SDS011;51140;45.340;5.980;2024-01-25T04:56:37;10.18;;;4.53;;
64712;SDS011;51140;45.340;5.980;2024-01-25T04:59:03;9.38;;;4.00;;
64712;SDS011;51140;45.340;5.980;2024-01-25T05:01:28;7.43;;;3.80;;
64712;SDS011;51140;45.340;5.980;2024-01-25T05:03:53;8.23;;;3.45;;
64712;SDS011;51140;45.340;5.980;2024-01-25T05:06:19;8.90;;;2.78;;
64712;SDS011;51140;45.340;5.980;2024-01-25T05:08:44;8.40;;;2.40;;
64712;SDS011;51140;45.340;5.980;2024-01-25T05:11:09;5.13;;;2.05;;
64712;SDS011;51140;45.340;5.980;2024-01-25T05:13:35;6.43;;;2.38;;
64712;SDS011;51140;45.340;5.980;2024-01-25T05:16:00;9.13;;;4.50;;
64712;SDS011;51140;45.340;5.980;2024-01-25T05:18:25;12.98;;;3.35;;
64712;SDS011;51140;45.340;5.980;2024-01-25T05:20:51;15.13;;;2.50;;
64712;SDS011;51140;45.340;5.980;2024-01-25T05:23:16;6.15;;;2.55;;
64712;SDS011;51140;45.340;5.980;2024-01-25T05:25:41;6.03;;;2.83;;
64712;SDS011;51140;45.340;5.980;2024-01-25T05:28:07;6.57;;;2.50;;
64712;SDS011;51140;45.340;5.980;2024-01-25T05:30:32;4.97;;;2.10;;
64712;SDS011;51140;45.340;5.980;2024-01-25T05:32:57;9.68;;;3.15;;
64712;SDS011;51140;45.340;5.980;2024-01-25T05:35:23;6.07;;;2.92;;
64712;SDS011;51140;45.340;5.980;2024-01-25T05:37:49;5.40;;;2.25;;
64712;SDS011;51140;45.340;5.980;2024-01-25T05:40:14;4.97;;;2.17;;
64712;SDS011;51140;45.340;5.980;2024-01-25T05:42:39;6.07;;;2.70;;
64712;SDS011;51140;45.340;5.980;2024-01-25T05:45:08;8.77;;;2.92;;
64712;SDS011;51140;45.340;5.980;2024-01-25T05:47:33;7.15;;;2.30;;
64712;SDS011;51140;45.340;5.980;2024-01-25T05:49:59;6.70;;;2.45;;
64712;SDS011;51140;45.340;5.980;2024-01-25T05:52:25;5.10;;;1.83;;
64712;SDS011;51140;45.340;5.980;2024-01-25T05:54:50;5.97;;;2.20;;
64712;SDS011;51140;45.340;5.980;2024-01-25T05:57:16;5.45;;;1.75;;
64712;SDS011;51140;45.340;5.980;2024-01-25T05:59:42;6.68;;;2.80;;
64712;SDS011;51140;45.340;5.980;2024-01-25T06:02:09;7.28;;;2.80;;
64712;SDS011;51140;45.340;5.980;2024-01-25T06:04:34;6.20;;;1.98;;
64712;SDS011;51140;45.340;5.980;2024-01-25T06:06:59;7.35;;;2.80;;
64712;SDS011;51140;45.340;5.980;2024-01-25T06:09:25;7.82;;;2.30;;
64712;SDS011;51140;45.340;5.980;2024-01-25T06:11:51;6.38;;;2.15;;
64712;SDS011;51140;45.340;5.980;2024-01-25T06:14:16;5.40;;;1.92;;
64712;SDS011;51140;45.340;5.980;2024-01-25T06:16:41;10.10;;;1.90;;
64712;SDS011;51140;45.340;5.980;2024-01-25T06:19:07;7.35;;;2.20;;
64712;SDS011;51140;45.340;5.980;2024-01-25T06:21:33;6.70;;;3.10;;
64712;SDS011;51140;45.340;5.980;2024-01-25T06:24:00;7.35;;;2.90;;
64712;SDS011;51140;45.340;5.980;2024-01-25T06:26:29;10.68;;;4.35;;
64712;SDS011;51140;45.340;5.980;2024-01-25T06:28:55;12.55;;;4.70;;
64712;SDS011;51140;45.340;5.980;2024-01-25T06:31:20;10.75;;;4.03;;
64712;SDS011;51140;45.340;5.980;2024-01-25T06:33:45;9.07;;;3.80;;
64712;SDS011;51140;45.340;5.980;2024-01-25T06:36:15;9.10;;;3.38;;
64712;SDS011;51140;45.340;5.980;2024-01-25T06:38:40;8.27;;;3.03;;
64712;SDS011;51140;45.340;5.980;2024-01-25T06:41:06;6.80;;;2.85;;
64712;SDS011;51140;45.340;5.980;2024-01-25T06:43:32;6.70;;;2.30;;
64712;SDS011;51140;45.340;5.980;2024-01-25T06:45:57;4.65;;;1.70;;
64712;SDS011;51140;45.340;5.980;2024-01-25T06:48:23;7.07;;;2.10;;
64712;SDS011;51140;45.340;5.980;2024-01-25T06:50:48;5.47;;;1.33;;
64712;SDS011;51140;45.340;5.980;2024-01-25T06:53:15;9.27;;;4.97;;
64712;SDS011;51140;45.340;5.980;2024-01-25T06:55:41;8.10;;;3.60;;
64712;SDS011;51140;45.340;5.980;2024-01-25T06:58:06;10.23;;;4.85;;
64712;SDS011;51140;45.340;5.980;2024-01-25T07:00:32;14.90;;;5.15;;
64712;SDS011;51140;45.340;5.980;2024-01-25T07:02:57;11.15;;;5.38;;
64712;SDS011;51140;45.340;5.980;2024-01-25T07:05:22;9.05;;;4.30;;
64712;SDS011;51140;45.340;5.980;2024-01-25T07:07:49;11.38;;;4.90;;
64712;SDS011;51140;45.340;5.980;2024-01-25T07:10:14;14.98;;;6.47;;
64712;SDS011;51140;45.340;5.980;2024-01-25T07:12:40;9.63;;;4.90;;
64712;SDS011;51140;45.340;5.980;2024-01-25T07:15:05;14.15;;;6.40;;
64712;SDS011;51140;45.340;5.980;2024-01-25T07:17:31;13.07;;;6.88;;
64712;SDS011;51140;45.340;5.980;2024-01-25T07:19:56;14.32;;;7.00;;
64712;SDS011;51140;45.340;5.980;2024-01-25T07:22:22;13.05;;;7.43;;
64712;SDS011;51140;45.340;5.980;2024-01-25T07:24:47;13.85;;;6.85;;
64712;SDS011;51140;45.340;5.980;2024-01-25T07:27:12;14.38;;;6.88;;
64712;SDS011;51140;45.340;5.980;2024-01-25T07:29:38;14.30;;;7.53;;
64712;SDS011;51140;45.340;5.980;2024-01-25T07:32:03;14.05;;;7.28;;
64712;SDS011;51140;45.340;5.980;2024-01-25T07:34:29;17.42;;;7.18;;
64712;SDS011;51140;45.340;5.980;2024-01-25T07:36:54;15.05;;;7.05;;
64712;SDS011;51140;45.340;5.980;2024-01-25T07:39:20;14.15;;;7.05;;
64712;SDS011;51140;45.340;5.980;2024-01-25T07:41:45;15.57;;;6.95;;
64712;SDS011;51140;45.340;5.980;2024-01-25T07:44:12;12.60;;;6.75;;
64712;SDS011;51140;45.340;5.980;2024-01-25T07:46:37;14.98;;;6.90;;
64712;SDS011;51140;45.340;5.980;2024-01-25T07:49:03;13.07;;;6.70;;
64712;SDS011;51140;45.340;5.980;2024-01-25T07:51:28;12.43;;;6.40;;
64712;SDS011;51140;45.340;5.980;2024-01-25T07:53:54;13.80;;;6.47;;
64712;SDS011;51140;45.340;5.980;2024-01-25T07:56:20;12.32;;;5.88;;
64712;SDS011;51140;45.340;5.980;2024-01-25T07:58:47;19.08;;;7.00;;
64712;SDS011;51140;45.340;5.980;2024-01-25T08:01:19;23.67;;;12.07;;
64712;SDS011;51140;45.340;5.980;2024-01-25T08:03:47;25.88;;;12.02;;
64712;SDS011;51140;45.340;5.980;2024-01-25T08:06:12;28.42;;;16.77;;
64712;SDS011;51140;45.340;5.980;2024-01-25T08:08:38;26.10;;;14.48;;
64712;SDS011;51140;45.340;5.980;2024-01-25T08:11:03;26.33;;;14.23;;
64712;SDS011;51140;45.340;5.980;2024-01-25T08:13:29;18.88;;;12.25;;
64712;SDS011;51140;45.340;5.980;2024-01-25T08:15:55;20.20;;;11.57;;
64712;SDS011;51140;45.340;5.980;2024-01-25T08:18:21;18.90;;;10.68;;
64712;SDS011;51140;45.340;5.980;2024-01-25T08:20:48;17.27;;;10.10;;
64712;SDS011;51140;45.340;5.980;2024-01-25T08:23:13;20.45;;;11.18;;
64712;SDS011;51140;45.340;5.980;2024-01-25T08:25:39;25.50;;;11.52;;
64712;SDS011;51140;45.340;5.980;2024-01-25T08:28:04;87.82;;;29.10;;
64712;SDS011;51140;45.340;5.980;2024-01-25T08:30:30;73.65;;;33.42;;
64712;SDS011;51140;45.340;5.980;2024-01-25T08:32:55;39.10;;;19.08;;
64712;SDS011;51140;45.340;5.980;2024-01-25T08:35:21;32.92;;;18.20;;
64712;SDS011;51140;45.340;5.980;2024-01-25T08:37:46;20.75;;;11.18;;
64712;SDS011;51140;45.340;5.980;2024-01-25T08:40:12;20.55;;;11.93;;
64712;SDS011;51140;45.340;5.980;2024-01-25T08:42:38;77.57;;;51.78;;
64712;SDS011;51140;45.340;5.980;2024-01-25T08:45:03;21.73;;;14.95;;
64712;SDS011;51140;45.340;5.980;2024-01-25T08:47:32;25.90;;;14.57;;
64712;SDS011;51140;45.340;5.980;2024-01-25T08:49:57;20.13;;;12.15;;
64712;SDS011;51140;45.340;5.980;2024-01-25T08:52:22;14.45;;;8.52;;
64712;SDS011;51140;45.340;5.980;2024-01-25T08:54:48;14.80;;;8.38;;
64712;SDS011;51140;45.340;5.980;2024-01-25T08:57:13;15.02;;;7.50;;
64712;SDS011;51140;45.340;5.980;2024-01-25T08:59:40;14.60;;;7.80;;
64712;SDS011;51140;45.340;5.980;2024-01-25T09:02:05;12.57;;;6.93;;
64712;SDS011;51140;45.340;5.980;2024-01-25T09:04:31;13.07;;;7.55;;
64712;SDS011;51140;45.340;5.980;2024-01-25T09:06:57;14.40;;;7.22;;
64712;SDS011;51140;45.340;5.980;2024-01-25T09:09:23;11.27;;;6.38;;
64712;SDS011;51140;45.340;5.980;2024-01-25T09:11:49;11.38;;;6.00;;
64712;SDS011;51140;45.340;5.980;2024-01-25T09:14:14;11.10;;;5.28;;
64712;SDS011;51140;45.340;5.980;2024-01-25T09:16:40;10.73;;;5.63;;
64712;SDS011;51140;45.340;5.980;2024-01-25T09:19:05;15.20;;;5.47;;
64712;SDS011;51140;45.340;5.980;2024-01-25T09:21:33;10.85;;;4.97;;
64712;SDS011;51140;45.340;5.980;2024-01-25T09:23:58;8.80;;;4.50;;
64712;SDS011;51140;45.340;5.980;2024-01-25T09:26:24;8.38;;;3.97;;
64712;SDS011;51140;45.340;5.980;2024-01-25T09:28:50;7.88;;;4.32;;
64712;SDS011;51140;45.340;5.980;2024-01-25T09:31:15;9.82;;;5.00;;
64712;SDS011;51140;45.340;5.980;2024-01-25T09:33:41;9.75;;;4.70;;
64712;SDS011;51140;45.340;5.980;2024-01-25T09:36:06;9.48;;;4.70;;
64712;SDS011;51140;45.340;5.980;2024-01-25T09:38:31;10.23;;;4.85;;
64712;SDS011;51140;45.340;5.980;2024-01-25T09:40:57;10.10;;;4.80;;
64712;SDS011;51140;45.340;5.980;2024-01-25T09:43:22;9.77;;;4.47;;
64712;SDS011;51140;45.340;5.980;2024-01-25T09:45:48;12.70;;;4.88;;
64712;SDS011;51140;45.340;5.980;2024-01-25T09:48:21;11.00;;;5.25;;
64712;SDS011;51140;45.340;5.980;2024-01-25T09:50:47;13.02;;;5.20;;
64712;SDS011;51140;45.340;5.980;2024-01-25T09:53:22;11.77;;;6.15;;
64712;SDS011;51140;45.340;5.980;2024-01-25T09:55:55;15.75;;;7.15;;
64712;SDS011;51140;45.340;5.980;2024-01-25T09:58:26;9.43;;;4.72;;
64712;SDS011;51140;45.340;5.980;2024-01-25T10:01:01;16.58;;;7.85;;
64712;SDS011;51140;45.340;5.980;2024-01-25T10:03:27;10.68;;;5.30;;
64712;SDS011;51140;45.340;5.980;2024-01-25T10:05:52;21.42;;;9.77;;
64712;SDS011;51140;45.340;5.980;2024-01-25T10:08:18;17.48;;;7.97;;
64712;SDS011;51140;45.340;5.980;2024-01-25T10:10:46;20.45;;;11.25;;
64712;SDS011;51140;45.340;5.980;2024-01-25T10:13:12;23.33;;;11.15;;
64712;SDS011;51140;45.340;5.980;2024-01-25T10:15:38;18.30;;;8.65;;
64712;SDS011;51140;45.340;5.980;2024-01-25T10:18:06;19.70;;;8.43;;
64712;SDS011;51140;45.340;5.980;2024-01-25T10:20:38;14.88;;;7.20;;
64712;SDS011;51140;45.340;5.980;2024-01-25T10:23:09;12.77;;;6.00;;
64712;SDS011;51140;45.340;5.980;2024-01-25T10:25:35;14.90;;;6.90;;
64712;SDS011;51140;45.340;5.980;2024-01-25T10:28:02;13.32;;;6.10;;
64712;SDS011;51140;45.340;5.980;2024-01-25T10:30:30;9.82;;;4.90;;
64712;SDS011;51140;45.340;5.980;2024-01-25T10:32:58;7.80;;;4.05;;
64712;SDS011;51140;45.340;5.980;2024-01-25T10:35:23;10.35;;;4.40;;
64712;SDS011;51140;45.340;5.980;2024-01-25T10:37:50;8.57;;;3.83;;
64712;SDS011;51140;45.340;5.980;2024-01-25T10:40:17;9.68;;;4.00;;
64712;SDS011;51140;45.340;5.980;2024-01-25T10:42:44;8.40;;;3.78;;
64712;SDS011;51140;45.340;5.980;2024-01-25T10:45:09;8.75;;;3.90;;
64712;SDS011;51140;45.340;5.980;2024-01-25T10:47:35;10.95;;;4.18;;
64712;SDS011;51140;45.340;5.980;2024-01-25T10:50:01;8.48;;;3.40;;
64712;SDS011;51140;45.340;5.980;2024-01-25T10:52:30;8.40;;;3.00;;
64712;SDS011;51140;45.340;5.980;2024-01-25T10:54:57;6.18;;;2.67;;
64712;SDS011;51140;45.340;5.980;2024-01-25T10:57:23;7.18;;;2.90;;
64712;SDS011;51140;45.340;5.980;2024-01-25T10:59:48;8.93;;;3.25;;
64712;SDS011;51140;45.340;5.980;2024-01-25T11:02:14;8.63;;;3.30;;
64712;SDS011;51140;45.340;5.980;2024-01-25T11:04:52;8.60;;;3.33;;
64712;SDS011;51140;45.340;5.980;2024-01-25T11:07:19;7.60;;;3.30;;
64712;SDS011;51140;45.340;5.980;2024-01-25T11:09:44;10.38;;;3.83;;
64712;SDS011;51140;45.340;5.980;2024-01-25T11:12:13;10.82;;;4.13;;
64712;SDS011;51140;45.340;5.980;2024-01-25T11:14:39;10.77;;;3.72;;
64712;SDS011;51140;45.340;5.980;2024-01-25T11:17:20;10.90;;;3.78;;
64712;SDS011;51140;45.340;5.980;2024-01-25T11:19:50;10.65;;;3.88;;
64712;SDS011;51140;45.340;5.980;2024-01-25T11:22:16;8.80;;;3.88;;
64712;SDS011;51140;45.340;5.980;2024-01-25T11:24:42;9.02;;;3.38;;
64712;SDS011;51140;45.340;5.980;2024-01-25T11:27:08;8.10;;;2.97;;
64712;SDS011;51140;45.340;5.980;2024-01-25T11:29:35;8.70;;;3.20;;
64712;SDS011;51140;45.340;5.980;2024-01-25T11:32:03;9.48;;;2.85;;
64712;SDS011;51140;45.340;5.980;2024-01-25T11:34:30;8.25;;;3.38;;
64712;SDS011;51140;45.340;5.980;2024-01-25T11:36:56;7.93;;;3.25;;
64712;SDS011;51140;45.340;5.980;2024-01-25T11:39:23;7.32;;;3.10;;
64712;SDS011;51140;45.340;5.980;2024-01-25T11:41:50;8.35;;;3.13;;
64712;SDS011;51140;45.340;5.980;2024-01-25T11:44:16;8.60;;;2.97;;
64712;SDS011;51140;45.340;5.980;2024-01-25T11:46:41;6.30;;;2.83;;
64712;SDS011;51140;45.340;5.980;2024-01-25T11:49:07;6.65;;;3.05;;
64712;SDS011;51140;45.340;5.980;2024-01-25T11:51:32;10.07;;;3.03;;
64712;SDS011;51140;45.340;5.980;2024-01-25T11:53:58;6.32;;;2.65;;
64712;SDS011;51140;45.340;5.980;2024-01-25T11:56:26;6.32;;;2.53;;
64712;SDS011;51140;45.340;5.980;2024-01-25T11:58:53;6.40;;;2.55;;
64712;SDS011;51140;45.340;5.980;2024-01-25T12:01:21;7.35;;;2.33;;
64712;SDS011;51140;45.340;5.980;2024-01-25T12:03:48;6.85;;;2.40;;
64712;SDS011;51140;45.340;5.980;2024-01-25T12:06:13;5.65;;;2.40;;
64712;SDS011;51140;45.340;5.980;2024-01-25T12:08:39;5.20;;;2.20;;
64712;SDS011;51140;45.340;5.980;2024-01-25T12:11:05;6.85;;;2.25;;
64712;SDS011;51140;45.340;5.980;2024-01-25T12:13:32;6.32;;;2.45;;
64712;SDS011;51140;45.340;5.980;2024-01-25T12:15:59;5.35;;;2.17;;
64712;SDS011;51140;45.340;5.980;2024-01-25T12:18:25;6.70;;;1.90;;
64712;SDS011;51140;45.340;5.980;2024-01-25T12:20:51;5.80;;;1.80;;
64712;SDS011;51140;45.340;5.980;2024-01-25T12:23:16;5.85;;;2.40;;
64712;SDS011;51140;45.340;5.980;2024-01-25T12:25:41;5.57;;;2.20;;
64712;SDS011;51140;45.340;5.980;2024-01-25T12:28:07;5.38;;;2.20;;
64712;SDS011;51140;45.340;5.980;2024-01-25T12:30:32;5.78;;;2.05;;
64712;SDS011;51140;45.340;5.980;2024-01-25T12:32:58;9.45;;;2.55;;
64712;SDS011;51140;45.340;5.980;2024-01-25T12:35:23;6.00;;;1.98;;
64712;SDS011;51140;45.340;5.980;2024-01-25T12:37:48;5.78;;;2.30;;
64712;SDS011;51140;45.340;5.980;2024-01-25T12:40:14;5.70;;;2.40;;
64712;SDS011;51140;45.340;5.980;2024-01-25T12:42:39;5.25;;;2.10;;
64712;SDS011;51140;45.340;5.980;2024-01-25T12:45:05;6.50;;;1.95;;
64712;SDS011;51140;45.340;5.980;2024-01-25T12:47:30;8.93;;;2.05;;
64712;SDS011;51140;45.340;5.980;2024-01-25T12:49:56;3.70;;;1.58;;
64712;SDS011;51140;45.340;5.980;2024-01-25T12:52:21;4.40;;;1.60;;
64712;SDS011;51140;45.340;5.980;2024-01-25T12:54:46;4.13;;;1.83;;
64712;SDS011;51140;45.340;5.980;2024-01-25T12:57:12;5.05;;;1.95;;
64712;SDS011;51140;45.340;5.980;2024-01-25T12:59:37;4.63;;;1.80;;
64712;SDS011;51140;45.340;5.980;2024-01-25T13:02:03;5.85;;;1.67;;
64712;SDS011;51140;45.340;5.980;2024-01-25T13:04:30;4.90;;;1.67;;
64712;SDS011;51140;45.340;5.980;2024-01-25T13:06:55;6.28;;;2.03;;
64712;SDS011;51140;45.340;5.980;2024-01-25T13:09:21;5.15;;;1.80;;
64712;SDS011;51140;45.340;5.980;2024-01-25T13:11:47;6.15;;;1.73;;
64712;SDS011;51140;45.340;5.980;2024-01-25T13:14:13;7.35;;;1.90;;
64712;SDS011;51140;45.340;5.980;2024-01-25T13:16:38;3.70;;;1.55;;
64712;SDS011;51140;45.340;5.980;2024-01-25T13:19:04;4.97;;;1.73;;
64712;SDS011;51140;45.340;5.980;2024-01-25T13:21:29;4.13;;;1.55;;
64712;SDS011;51140;45.340;5.980;2024-01-25T13:23:55;5.00;;;1.80;;
64712;SDS011;51140;45.340;5.980;2024-01-25T13:26:20;4.25;;;1.40;;
64712;SDS011;51140;45.340;5.980;2024-01-25T13:28:46;3.42;;;1.35;;
64712;SDS011;51140;45.340;5.980;2024-01-25T13:31:11;4.97;;;1.70;;
64712;SDS011;51140;45.340;5.980;2024-01-25T13:33:36;5.57;;;1.73;;
64712;SDS011;51140;45.340;5.980;2024-01-25T13:36:02;4.50;;;1.88;;
64712;SDS011;51140;45.340;5.980;2024-01-25T13:38:29;5.70;;;1.70;;
64712;SDS011;51140;45.340;5.980;2024-01-25T13:40:55;6.03;;;1.70;;
64712;SDS011;51140;45.340;5.980;2024-01-25T13:43:20;5.40;;;1.60;;
64712;SDS011;51140;45.340;5.980;2024-01-25T13:45:46;4.93;;;2.00;;
64712;SDS011;51140;45.340;5.980;2024-01-25T13:48:11;5.20;;;1.95;;
64712;SDS011;51140;45.340;5.980;2024-01-25T13:50:36;4.82;;;2.00;;
64712;SDS011;51140;45.340;5.980;2024-01-25T13:53:02;6.78;;;2.53;;
64712;SDS011;51140;45.340;5.980;2024-01-25T13:55:27;4.03;;;1.73;;
64712;SDS011;51140;45.340;5.980;2024-01-25T13:57:53;6.88;;;1.63;;
64712;SDS011;51140;45.340;5.980;2024-01-25T14:00:18;4.00;;;1.50;;
64712;SDS011;51140;45.340;5.980;2024-01-25T14:02:43;4.57;;;1.60;;
64712;SDS011;51140;45.340;5.980;2024-01-25T14:05:10;4.90;;;1.50;;
64712;SDS011;51140;45.340;5.980;2024-01-25T14:07:36;5.18;;;1.40;;
64712;SDS011;51140;45.340;5.980;2024-01-25T14:10:02;7.43;;;2.70;;
64712;SDS011;51140;45.340;5.980;2024-01-25T14:12:27;7.45;;;2.90;;
64712;SDS011;51140;45.340;5.980;2024-01-25T14:14:52;5.57;;;1.70;;
64712;SDS011;51140;45.340;5.980;2024-01-25T14:17:18;4.53;;;1.52;;
64712;SDS011;51140;45.340;5.980;2024-01-25T14:19:43;4.43;;;1.48;;
64712;SDS011;51140;45.340;5.980;2024-01-25T14:22:08;4.30;;;1.52;;
64712;SDS011;51140;45.340;5.980;2024-01-25T14:24:34;4.82;;;1.65;;
64712;SDS011;51140;45.340;5.980;2024-01-25T14:26:59;5.70;;;1.70;;
64712;SDS011;51140;45.340;5.980;2024-01-25T14:29:25;3.70;;;1.48;;
64712;SDS011;51140;45.340;5.980;2024-01-25T14:31:50;3.97;;;1.55;;
64712;SDS011;51140;45.340;5.980;2024-01-25T14:34:15;5.05;;;1.40;;